createdAt,value
2022-08-17T00:02:10.901Z,6.32
2022-08-17T00:04:51.144Z,5.65
2022-08-17T00:07:17.687Z,5.53
2022-08-17T00:09:44.192Z,6.05
2022-08-17T00:12:43.031Z,6.95
2022-08-17T00:14:57.285Z,6.72
2022-08-17T00:17:23.945Z,6.40
2022-08-17T00:19:50.457Z,6.43
2022-08-17T00:22:34.181Z,6.38
2022-08-17T00:25:09.496Z,6.43
2022-08-17T00:27:37.008Z,7.40
2022-08-17T00:30:06.189Z,6.55
2022-08-17T00:33:14.906Z,7.55
2022-08-17T00:35:45.291Z,6.93
2022-08-17T00:38:12.341Z,7.10
2022-08-17T00:40:44.795Z,7.55
2022-08-17T00:43:22.207Z,6.97
2022-08-17T00:45:49.589Z,7.95
2022-08-17T00:48:27.197Z,7.88
2022-08-17T00:51:02.223Z,7.35
2022-08-17T00:53:31.301Z,7.47
2022-08-17T00:56:01.657Z,7.45
2022-08-17T00:58:36.286Z,7.43
2022-08-17T01:01:04.333Z,7.68
2022-08-17T01:03:31.246Z,7.35
2022-08-17T01:06:01.471Z,7.50
2022-08-17T01:08:31.001Z,6.80
2022-08-17T01:11:02.252Z,7.97
2022-08-17T01:13:38.154Z,7.20
2022-08-17T01:16:26.697Z,6.53
2022-08-17T01:18:57.339Z,6.63
2022-08-17T01:22:11.450Z,5.88
2022-08-17T01:24:42.954Z,5.40
2022-08-17T01:27:10.963Z,5.60
2022-08-17T01:29:39.383Z,5.68
2022-08-17T01:32:07.635Z,4.90
2022-08-17T01:34:42.101Z,5.20
2022-08-17T01:37:10.119Z,5.03
2022-08-17T01:39:56.131Z,5.53
2022-08-17T01:42:22.750Z,4.47
2022-08-17T01:44:55.073Z,4.93
2022-08-17T01:47:21.728Z,4.68
2022-08-17T01:49:48.315Z,5.32
2022-08-17T01:52:15.425Z,5.32
2022-08-17T01:54:45.836Z,4.85
2022-08-17T01:57:12.714Z,4.10
2022-08-17T01:59:39.272Z,4.65
2022-08-17T02:02:07.320Z,4.72
2022-08-17T02:04:34.680Z,4.85
2022-08-17T02:07:01.225Z,5.32
2022-08-17T02:09:31.460Z,4.05
2022-08-17T02:12:00.390Z,4.85
2022-08-17T02:14:46.962Z,4.95
2022-08-17T02:17:13.552Z,5.00
2022-08-17T02:19:40.488Z,5.28
2022-08-17T02:22:07.020Z,4.57
2022-08-17T02:25:01.188Z,4.43
2022-08-17T02:27:24.427Z,4.32
2022-08-17T02:29:51.132Z,5.15
2022-08-17T02:32:27.964Z,4.78
2022-08-17T02:34:57.282Z,4.80
2022-08-17T02:37:25.043Z,4.15
2022-08-17T02:39:51.630Z,4.38
2022-08-17T02:42:18.518Z,4.93
2022-08-17T02:44:45.079Z,5.15
2022-08-17T02:47:11.886Z,4.35
2022-08-17T02:49:38.431Z,5.18
2022-08-17T02:52:07.234Z,4.82
2022-08-17T02:54:39.654Z,5.53
2022-08-17T02:57:09.421Z,5.97
2022-08-17T02:59:35.974Z,4.45
2022-08-17T03:02:11.013Z,4.90
2022-08-17T03:04:38.198Z,4.32
2022-08-17T03:07:05.472Z,4.70
2022-08-17T03:09:32.450Z,4.22
2022-08-17T03:12:12.745Z,5.28
2022-08-17T03:14:43.363Z,5.05
2022-08-17T03:17:11.263Z,4.75
2022-08-17T03:19:44.298Z,5.28
2022-08-17T03:22:34.707Z,7.18
2022-08-17T03:24:57.695Z,5.72
2022-08-17T03:27:24.232Z,5.97
2022-08-17T03:29:50.787Z,5.90
2022-08-17T03:32:17.640Z,6.05
2022-08-17T03:34:44.179Z,5.00
2022-08-17T03:37:10.755Z,5.57
2022-08-17T03:39:37.348Z,4.93
2022-08-17T03:42:09.117Z,5.90
2022-08-17T03:44:57.798Z,5.63
2022-08-17T03:47:42.975Z,5.43
2022-08-17T03:50:29.757Z,6.20
2022-08-17T03:53:15.236Z,6.30
2022-08-17T03:56:01.128Z,5.93
2022-08-17T03:58:27.673Z,5.30
2022-08-17T04:00:55.040Z,6.88
2022-08-17T04:03:21.675Z,7.13
2022-08-17T04:05:48.216Z,6.13
2022-08-17T04:08:14.796Z,5.40
2022-08-17T04:10:44.862Z,5.78
2022-08-17T04:13:12.314Z,6.88
2022-08-17T04:15:38.859Z,6.00
2022-08-17T04:18:07.441Z,5.75
2022-08-17T04:20:34.415Z,5.65
2022-08-17T04:23:15.502Z,5.68
2022-08-17T04:25:45.787Z,6.28
2022-08-17T04:28:15.794Z,6.40
2022-08-17T04:30:45.249Z,5.95
2022-08-17T04:33:18.296Z,6.10
2022-08-17T04:35:48.403Z,6.07
2022-08-17T04:38:17.989Z,6.25
2022-08-17T04:41:03.576Z,5.97
2022-08-17T04:43:32.062Z,6.40
2022-08-17T04:46:04.917Z,5.32
2022-08-17T04:48:36.894Z,6.03
2022-08-17T04:51:17.199Z,6.50
2022-08-17T04:53:51.087Z,6.50
2022-08-17T04:56:22.952Z,6.22
2022-08-17T04:58:51.366Z,5.93
2022-08-17T05:01:23.912Z,6.53
2022-08-17T05:03:53.497Z,6.10
2022-08-17T05:06:20.549Z,6.38
2022-08-17T05:08:47.112Z,6.47
2022-08-17T05:11:14.534Z,5.80
2022-08-17T05:13:41.190Z,7.53
2022-08-17T05:16:09.195Z,6.15
2022-08-17T05:18:37.303Z,7.45
2022-08-17T05:21:04.162Z,6.40
2022-08-17T05:23:37.871Z,6.63
2022-08-17T05:26:25.524Z,6.38
2022-08-17T05:28:53.866Z,6.65
2022-08-17T05:31:20.812Z,6.60
2022-08-17T05:33:47.340Z,7.25
2022-08-17T05:36:41.743Z,6.28
2022-08-17T05:39:02.719Z,6.47
2022-08-17T05:41:29.230Z,6.47
2022-08-17T05:43:56.579Z,8.30
2022-08-17T05:46:32.972Z,6.97
2022-08-17T05:49:03.658Z,6.97
2022-08-17T05:51:39.285Z,7.20
2022-08-17T05:54:08.779Z,6.95
2022-08-17T05:57:00.033Z,7.72
2022-08-17T05:59:41.949Z,7.50
2022-08-17T06:02:23.734Z,7.60
2022-08-17T06:05:16.820Z,8.30
2022-08-17T06:08:12.004Z,9.07
2022-08-17T06:11:04.899Z,9.50
2022-08-17T06:14:07.423Z,11.43
2022-08-17T06:16:38.485Z,10.23
2022-08-17T06:19:19.547Z,11.30
2022-08-17T06:21:50.644Z,10.70
2022-08-17T06:24:34.317Z,11.50
2022-08-17T06:27:37.257Z,10.73
2022-08-17T06:30:20.626Z,9.70
2022-08-17T06:32:51.124Z,10.30
2022-08-17T06:36:02.506Z,9.93
2022-08-17T06:38:41.695Z,9.65
2022-08-17T06:41:22.377Z,10.93
2022-08-17T06:44:03.924Z,10.88
2022-08-17T06:46:43.656Z,10.55
2022-08-17T06:49:21.905Z,12.38
2022-08-17T06:51:58.501Z,14.18
2022-08-17T06:54:41.415Z,15.35
2022-08-17T06:57:20.268Z,15.60
2022-08-17T06:59:56.220Z,19.23
2022-08-17T07:02:52.351Z,19.33
2022-08-17T07:05:22.311Z,22.20
2022-08-17T07:08:12.886Z,28.73
2022-08-17T07:10:45.176Z,30.40
2022-08-17T07:13:29.815Z,29.52
2022-08-17T07:16:04.889Z,30.75
2022-08-17T07:18:33.243Z,28.85
2022-08-17T07:21:26.556Z,29.48
2022-08-17T07:24:06.739Z,35.20
2022-08-17T07:26:33.281Z,34.45
2022-08-17T07:29:02.320Z,33.88
2022-08-17T07:31:31.567Z,39.83
2022-08-17T07:34:06.730Z,38.03
2022-08-17T07:36:34.166Z,39.30
2022-08-17T07:39:02.847Z,40.65
2022-08-17T07:41:57.982Z,48.50
2022-08-17T07:44:20.488Z,71.38
2022-08-17T07:47:10.658Z,54.42
2022-08-17T07:49:40.820Z,88.05
2022-08-17T07:52:51.496Z,80.95
2022-08-17T07:55:29.448Z,67.20
2022-08-17T07:57:59.215Z,58.95
2022-08-17T08:00:32.284Z,57.65
2022-08-17T08:03:13.395Z,60.22
2022-08-17T08:05:57.383Z,86.00
2022-08-17T08:08:37.365Z,77.72
2022-08-17T08:11:09.519Z,70.55
2022-08-17T08:13:42.522Z,87.03
2022-08-17T08:16:26.432Z,106.97
2022-08-17T08:18:59.859Z,106.68
2022-08-17T08:21:51.341Z,112.93
2022-08-17T08:24:30.810Z,119.28
2022-08-17T08:27:28.618Z,137.88
2022-08-17T08:30:06.273Z,148.10
2022-08-17T08:32:54.048Z,172.30
2022-08-17T08:35:40.399Z,189.73
2022-08-17T08:38:39.467Z,170.43
2022-08-17T08:41:18.655Z,237.18
2022-08-17T08:44:06.911Z,208.30
2022-08-17T08:46:51.989Z,211.68
2022-08-17T08:49:59.497Z,233.88
2022-08-17T08:52:41.527Z,251.88
2022-08-17T08:55:20.289Z,232.77
2022-08-17T08:58:05.933Z,259.08
2022-08-17T09:00:38.300Z,223.18
2022-08-17T09:03:51.544Z,253.88
2022-08-17T09:06:57.987Z,207.35
2022-08-17T09:09:49.624Z,336.40
2022-08-17T09:12:29.209Z,291.60
2022-08-17T09:15:27.443Z,268.73
2022-08-17T09:19:02.508Z,288.70
2022-08-17T09:21:03.361Z,275.48
2022-08-17T09:23:39.435Z,270.27
2022-08-17T09:26:21.004Z,343.83
2022-08-17T09:28:52.023Z,290.45
2022-08-17T09:31:35.458Z,286.70
2022-08-17T09:34:19.472Z,300.63
2022-08-17T09:37:19.441Z,315.95
2022-08-17T09:40:07.420Z,352.02
2022-08-17T09:42:47.471Z,207.75
2022-08-17T09:45:28.230Z,227.43
2022-08-17T09:48:08.272Z,238.95
2022-08-17T09:51:03.708Z,203.55
2022-08-17T09:53:32.308Z,209.43
2022-08-17T09:56:11.059Z,221.48
2022-08-17T09:58:59.295Z,227.57
2022-08-17T10:01:42.565Z,247.73
2022-08-17T10:04:29.303Z,257.53
2022-08-17T10:07:10.114Z,223.95
2022-08-17T10:10:14.325Z,223.77
2022-08-17T10:13:15.717Z,193.30
2022-08-17T10:16:01.399Z,150.27
2022-08-17T10:18:33.201Z,140.32
2022-08-17T10:21:24.550Z,134.75
2022-08-17T10:24:33.074Z,104.63
2022-08-17T10:27:03.158Z,110.10
2022-08-17T10:29:53.767Z,123.22
2022-08-17T10:32:32.140Z,106.40
2022-08-17T10:35:16.641Z,100.15
2022-08-17T10:38:21.528Z,108.07
2022-08-17T10:41:24.101Z,92.65
2022-08-17T10:44:37.059Z,88.25
2022-08-17T10:47:08.500Z,76.93
2022-08-17T10:49:47.402Z,68.85
2022-08-17T10:52:20.077Z,66.72
2022-08-17T10:54:58.306Z,63.10
2022-08-17T10:57:31.816Z,53.22
2022-08-17T11:00:11.083Z,55.03
2022-08-17T11:02:50.446Z,50.13
2022-08-17T11:05:43.479Z,46.42
2022-08-17T11:08:51.833Z,44.35
2022-08-17T11:11:39.309Z,44.67
2022-08-17T11:14:27.239Z,44.28
2022-08-17T11:17:29.241Z,46.30
2022-08-17T11:20:26.866Z,40.45
2022-08-17T11:23:05.107Z,41.13
2022-08-17T11:25:33.801Z,45.80
2022-08-17T11:28:35.830Z,39.38
2022-08-17T11:31:37.899Z,35.47
2022-08-17T11:34:21.345Z,38.35
2022-08-17T11:37:11.159Z,36.20
2022-08-17T11:39:43.570Z,39.13
2022-08-17T11:42:37.497Z,35.73
2022-08-17T11:45:46.345Z,37.58
2022-08-17T11:48:36.730Z,44.90
2022-08-17T11:51:34.335Z,35.55
2022-08-17T11:57:00.589Z,43.83
2022-08-17T11:59:33.225Z,47.03
2022-08-17T12:02:01.977Z,40.33
2022-08-17T12:04:33.017Z,37.15
2022-08-17T12:07:13.159Z,34.53
2022-08-17T12:09:44.670Z,26.50
2022-08-17T12:12:15.874Z,26.35
2022-08-17T12:15:09.446Z,35.95
2022-08-17T12:17:40.739Z,23.33
2022-08-17T12:20:35.070Z,24.88
2022-08-17T12:23:10.691Z,23.73
2022-08-17T12:25:49.538Z,20.40
2022-08-17T12:28:29.883Z,20.33
2022-08-17T12:31:02.530Z,19.42
2022-08-17T12:33:29.675Z,21.90
2022-08-17T12:36:00.022Z,21.85
2022-08-17T12:38:33.243Z,21.05
2022-08-17T12:41:21.619Z,22.65
2022-08-17T12:44:12.282Z,22.45
2022-08-17T12:47:10.679Z,21.35
2022-08-17T12:49:39.564Z,21.20
2022-08-17T12:52:25.028Z,21.98
2022-08-17T12:54:53.540Z,22.90
2022-08-17T12:57:33.656Z,21.58
2022-08-17T13:00:20.556Z,22.27
2022-08-17T13:03:02.390Z,22.40
2022-08-17T13:05:37.371Z,23.25
2022-08-17T13:08:24.040Z,22.00
2022-08-17T13:11:02.028Z,22.63
2022-08-17T13:13:31.662Z,23.63
2022-08-17T13:16:05.635Z,22.90
2022-08-17T13:19:01.385Z,21.73
2022-08-17T13:21:30.595Z,22.20
2022-08-17T13:24:00.113Z,22.13
2022-08-17T13:26:36.919Z,20.65
2022-08-17T13:29:28.268Z,20.02
2022-08-17T13:32:19.799Z,19.80
2022-08-17T13:35:14.397Z,18.92
2022-08-17T13:37:58.575Z,19.38
2022-08-17T13:40:30.343Z,18.00
2022-08-17T13:42:57.274Z,17.23
2022-08-17T13:45:39.574Z,17.42
2022-08-17T13:48:12.394Z,18.00
2022-08-17T13:50:48.232Z,18.23
2022-08-17T13:53:32.824Z,18.70
2022-08-17T13:56:04.457Z,17.27
2022-08-17T13:58:36.458Z,18.20
2022-08-17T14:01:29.311Z,19.07
2022-08-17T14:03:56.969Z,17.88
2022-08-17T14:06:51.820Z,19.33
2022-08-17T14:09:12.527Z,19.58
2022-08-17T14:11:39.099Z,17.83
2022-08-17T14:14:05.628Z,21.52
2022-08-17T14:16:32.206Z,16.40
2022-08-17T14:18:58.833Z,16.40
2022-08-17T14:21:25.398Z,15.73
2022-08-17T14:23:54.939Z,16.45
2022-08-17T14:26:21.754Z,17.05
2022-08-17T14:28:54.646Z,23.85
2022-08-17T14:31:23.458Z,24.15
2022-08-17T14:33:49.999Z,23.25
2022-08-17T14:36:16.567Z,25.08
2022-08-17T14:38:45.016Z,22.17
2022-08-17T14:41:11.687Z,22.80
2022-08-17T14:43:39.846Z,21.10
2022-08-17T14:46:06.714Z,21.15
2022-08-17T14:48:38.484Z,19.50
2022-08-17T14:51:05.361Z,20.42
2022-08-17T14:53:32.170Z,19.70
2022-08-17T14:55:58.757Z,21.40
2022-08-17T14:58:26.059Z,20.80
2022-08-17T15:00:52.708Z,21.65
2022-08-17T15:03:19.447Z,20.17
2022-08-17T15:05:46.748Z,19.42
2022-08-17T15:08:13.284Z,21.88
2022-08-17T15:10:39.835Z,19.70
2022-08-17T15:13:16.987Z,19.77
2022-08-17T15:15:43.818Z,19.30
2022-08-17T15:18:10.316Z,18.92
2022-08-17T15:20:36.853Z,18.80
2022-08-17T15:23:03.441Z,20.25
2022-08-17T15:25:32.969Z,22.15
2022-08-17T15:28:00.551Z,22.15
2022-08-17T15:30:28.045Z,21.80
2022-08-17T15:32:57.961Z,19.75
2022-08-17T15:35:28.756Z,20.08
2022-08-17T15:38:08.042Z,19.88
2022-08-17T15:40:41.314Z,18.90
2022-08-17T15:43:11.616Z,19.33
2022-08-17T15:45:38.783Z,19.75
2022-08-17T15:48:05.375Z,20.20
2022-08-17T15:50:32.024Z,20.08
2022-08-17T15:53:00.931Z,22.00
2022-08-17T15:55:30.455Z,23.25
2022-08-17T15:57:57.299Z,20.98
2022-08-17T16:00:24.388Z,22.85
2022-08-17T16:03:45.218Z,22.02
2022-08-17T16:05:40.695Z,22.80
2022-08-17T16:08:07.901Z,21.52
2022-08-17T16:10:35.566Z,23.48
2022-08-17T16:13:03.760Z,22.75
2022-08-17T16:15:31.724Z,26.15
2022-08-17T16:17:59.061Z,23.08
2022-08-17T16:20:26.145Z,24.92
2022-08-17T16:22:53.137Z,25.00
2022-08-17T16:25:52.533Z,24.92
2022-08-17T16:28:16.211Z,26.85
2022-08-17T16:30:43.490Z,27.73
2022-08-17T16:33:11.652Z,29.55
2022-08-17T16:35:41.825Z,27.20
2022-08-17T16:38:10.870Z,26.02
2022-08-17T16:40:37.488Z,26.73
2022-08-17T16:43:10.323Z,27.10
2022-08-17T16:45:40.718Z,27.20
2022-08-17T16:48:08.121Z,26.63
2022-08-17T16:50:35.548Z,27.30
2022-08-17T16:53:06.429Z,26.30
2022-08-17T16:55:35.501Z,23.70
2022-08-17T16:58:04.361Z,26.70
2022-08-17T17:00:33.139Z,23.33
2022-08-17T17:03:19.715Z,20.75
2022-08-17T17:06:03.811Z,18.75
2022-08-17T17:08:44.521Z,19.33
2022-08-17T17:11:19.573Z,17.13
2022-08-17T17:14:01.633Z,17.30
2022-08-17T17:16:44.994Z,17.33
2022-08-17T17:19:16.451Z,16.00
2022-08-17T17:21:58.652Z,17.35
2022-08-17T17:24:36.896Z,18.08
2022-08-17T17:27:25.563Z,22.35
2022-08-17T17:29:59.277Z,24.30
2022-08-17T17:32:25.752Z,23.75
2022-08-17T17:35:01.324Z,25.63
2022-08-17T17:37:33.299Z,21.17
2022-08-17T17:40:06.603Z,20.63
2022-08-17T17:42:33.755Z,19.33
2022-08-17T17:45:06.178Z,19.58
2022-08-17T17:47:33.312Z,19.33
2022-08-17T17:50:02.194Z,20.60
2022-08-17T17:52:47.605Z,20.77
2022-08-17T17:55:25.971Z,22.00
2022-08-17T17:58:11.215Z,23.77
2022-08-17T18:00:53.192Z,26.42
2022-08-17T18:03:53.385Z,25.95
2022-08-17T18:06:45.470Z,22.98
2022-08-17T18:09:26.869Z,23.30
2022-08-17T18:12:04.619Z,27.83
2022-08-17T18:15:10.363Z,39.63
2022-08-17T18:17:37.003Z,70.10
2022-08-17T18:20:07.071Z,100.65
2022-08-17T18:22:33.867Z,144.57
2022-08-17T18:25:00.816Z,154.23
2022-08-17T18:27:39.070Z,207.90
2022-08-17T18:30:14.461Z,228.35
2022-08-17T18:32:43.568Z,162.57
2022-08-17T18:35:10.205Z,160.93
2022-08-17T18:37:39.562Z,191.50
2022-08-17T18:40:19.909Z,221.55
2022-08-17T18:43:04.531Z,230.95
2022-08-17T18:45:40.893Z,209.13
2022-08-17T18:48:26.240Z,273.45
2022-08-17T18:50:56.623Z,302.17
2022-08-17T18:53:26.669Z,420.75
2022-08-17T18:56:18.855Z,393.70
2022-08-17T18:59:02.574Z,516.65
2022-08-17T19:01:52.714Z,498.35
2022-08-17T19:04:35.241Z,475.75
2022-08-17T19:07:24.566Z,548.60
2022-08-17T19:10:21.120Z,568.10
2022-08-17T19:12:53.728Z,586.78
2022-08-17T19:15:30.112Z,492.77
2022-08-17T19:18:15.837Z,522.40
2022-08-17T19:20:58.966Z,450.88
2022-08-17T19:23:54.630Z,465.42
2022-08-17T19:29:19.461Z,531.60
2022-08-17T19:31:48.918Z,531.33
2022-08-17T19:34:17.584Z,450.70
2022-08-17T19:37:09.667Z,489.63
2022-08-17T19:39:55.615Z,537.25
2022-08-17T19:42:52.699Z,555.33
2022-08-17T19:45:19.288Z,594.08
2022-08-17T19:48:14.474Z,593.35
2022-08-17T19:51:10.429Z,605.70
2022-08-17T19:54:05.553Z,610.60
2022-08-17T19:57:02.902Z,586.97
2022-08-17T19:59:57.552Z,446.35
2022-08-17T20:02:51.405Z,527.10
2022-08-17T20:05:28.887Z,428.75
2022-08-17T20:08:02.487Z,544.55
2022-08-17T20:10:54.811Z,497.92
2022-08-17T20:13:49.676Z,522.60
2022-08-17T20:18:55.076Z,407.90
2022-08-17T20:21:28.861Z,399.58
2022-08-17T20:24:06.472Z,424.83
2022-08-17T20:26:55.208Z,310.40
2022-08-17T20:29:37.845Z,369.50
2022-08-17T20:32:17.692Z,393.52
2022-08-17T20:34:46.481Z,427.50
2022-08-17T20:37:12.952Z,398.98
2022-08-17T20:39:44.508Z,411.15
2022-08-17T20:42:20.180Z,403.55
2022-08-17T20:44:50.680Z,383.67
2022-08-17T20:48:00.838Z,371.13
2022-08-17T20:50:40.615Z,339.73
2022-08-17T20:53:10.075Z,372.75
2022-08-17T20:55:52.061Z,365.35
2022-08-17T20:58:30.098Z,363.60
2022-08-17T21:00:57.838Z,315.77
2022-08-17T21:03:24.477Z,286.38
2022-08-17T21:06:15.314Z,292.77
2022-08-17T21:08:53.199Z,235.93
2022-08-17T21:11:57.319Z,247.63
2022-08-17T21:14:29.483Z,214.73
2022-08-17T21:17:12.216Z,177.38
2022-08-17T21:20:17.410Z,127.68
2022-08-17T21:23:05.271Z,127.35
2022-08-17T21:25:53.327Z,144.35
2022-08-17T21:28:38.064Z,146.90
2022-08-17T21:31:32.032Z,135.23
2022-08-17T21:34:16.038Z,124.75
2022-08-17T21:36:45.830Z,121.65
2022-08-17T21:39:33.370Z,127.88
2022-08-17T21:42:00.664Z,143.88
2022-08-17T21:44:47.892Z,110.95
2022-08-17T21:47:23.585Z,87.07
2022-08-17T21:49:51.723Z,85.93
2022-08-17T21:52:21.993Z,86.63
2022-08-17T21:54:54.868Z,78.45
2022-08-17T21:57:27.341Z,85.93
2022-08-17T21:59:58.819Z,86.22
2022-08-17T22:02:31.827Z,92.03
2022-08-17T22:05:02.061Z,95.43
2022-08-17T22:07:39.910Z,87.43
2022-08-17T22:10:27.336Z,93.43
2022-08-17T22:13:17.703Z,97.40
2022-08-17T22:15:47.852Z,100.55
2022-08-17T22:18:21.334Z,94.93
2022-08-17T22:20:54.745Z,89.70
2022-08-17T22:23:53.352Z,100.78
2022-08-17T22:26:23.036Z,99.15
2022-08-17T22:28:56.447Z,81.55
2022-08-17T22:31:25.891Z,83.65
2022-08-17T22:34:10.908Z,70.05
2022-08-17T22:36:39.418Z,69.30
2022-08-17T22:39:08.919Z,72.45
2022-08-17T22:41:48.107Z,68.45
2022-08-17T22:44:26.239Z,72.97
2022-08-17T22:46:58.915Z,55.17
2022-08-17T22:49:35.236Z,61.25
2022-08-17T22:52:32.387Z,58.45
2022-08-17T22:55:26.122Z,65.72
2022-08-17T22:58:11.437Z,62.88
2022-08-17T23:00:47.400Z,64.97
2022-08-17T23:03:23.619Z,56.70
2022-08-17T23:06:08.777Z,51.20
2022-08-17T23:08:48.856Z,46.75
2022-08-17T23:11:15.623Z,46.97
2022-08-17T23:13:42.248Z,56.33
2022-08-17T23:16:08.892Z,53.88
2022-08-17T23:18:36.374Z,44.70
2022-08-17T23:21:03.160Z,47.97
2022-08-17T23:23:29.836Z,47.00
2022-08-17T23:25:56.368Z,68.80
2022-08-17T23:28:23.030Z,34.80
2022-08-17T23:30:49.642Z,26.65
2022-08-17T23:33:30.019Z,25.80
2022-08-17T23:35:59.902Z,44.50
2022-08-17T23:38:27.402Z,41.38
2022-08-17T23:40:55.472Z,37.28
2022-08-17T23:43:24.270Z,24.33
2022-08-17T23:45:53.999Z,26.80
2022-08-17T23:48:35.325Z,22.45
2022-08-17T23:51:05.870Z,17.88
2022-08-17T23:53:34.871Z,25.15
2022-08-17T23:56:09.386Z,20.58
2022-08-17T23:58:38.552Z,21.30
